Time;durP1;ratioP1;P1;durP2;ratioP2;P2;SDS_P1;SDS_P2;PMS_P1;PMS_P2;Temp;Humidity;BMP_temperature;BMP_pressure;BME280_temperature;BME280_humidity;BME280_pressure;Samples;Min_cycle;Max_cycle;Signal;HPM_P1;HPM_P2
2022/08/24 00:00:51;;;;;;;22.52;20.13;;;;;;;19.78;92.71;101659.84;5033866;28;20081;-72
2022/08/24 00:03:16;;;;;;;23.77;20.00;;;;;;;19.75;92.98;101657.34;5042373;28;20032;-72
2022/08/24 00:05:41;;;;;;;23.25;20.67;;;;;;;19.76;93.17;101644.97;5050559;28;20033;-72
2022/08/24 00:08:07;;;;;;;28.10;22.83;;;;;;;19.72;93.55;101646.91;5050779;28;20029;-72
2022/08/24 00:10:32;;;;;;;25.90;23.20;;;;;;;19.65;94.05;101648.13;5050284;28;20029;-72
2022/08/24 00:12:57;;;;;;;29.83;24.23;;;;;;;19.63;93.96;101642.03;5037213;28;20385;-72
2022/08/24 00:15:23;;;;;;;26.55;23.75;;;;;;;19.63;94.23;101649.97;5051356;28;20055;-72
2022/08/24 00:17:49;;;;;;;30.95;24.13;;;;;;;19.63;94.53;101655.25;5052147;28;20096;-72
2022/08/24 00:20:15;;;;;;;27.55;24.55;;;;;;;19.61;95.06;101654.47;5050706;28;20025;-72
2022/08/24 00:22:41;;;;;;;27.42;24.20;;;;;;;19.64;95.12;101654.34;5038824;28;20029;-72
2022/08/24 00:25:09;;;;;;;26.73;23.77;;;;;;;19.61;95.46;101659.75;5039342;28;20026;-72
2022/08/24 00:27:35;;;;;;;27.83;24.23;;;;;;;19.49;95.94;101650.66;5047351;28;20541;-72
2022/08/24 00:30:04;;;;;;;26.30;22.92;;;;;;;19.48;96.14;101656.84;5045716;28;20099;-72
2022/08/24 00:32:30;;;;;;;28.40;25.00;;;;;;;19.39;96.89;101657.28;5047501;28;20389;-72
2022/08/24 00:34:55;;;;;;;29.08;25.75;;;;;;;19.36;96.87;101665.38;5049959;28;20021;-72
2022/08/24 00:37:20;;;;;;;30.25;23.92;;;;;;;19.32;97.14;101669.91;5050792;28;20044;-72
2022/08/24 00:39:46;;;;;;;28.30;24.42;;;;;;;19.31;97.17;101670.00;5051973;28;20013;-72
2022/08/24 00:42:11;;;;;;;25.20;22.50;;;;;;;19.26;97.15;101662.31;5037439;28;20542;-72
2022/08/24 00:44:36;;;;;;;24.17;21.50;;;;;;;19.20;97.30;101675.81;5049707;28;20048;-72
2022/08/24 00:47:11;;;;;;;30.42;21.25;;;;;;;19.20;97.53;101669.66;5051259;28;20025;-72
2022/08/24 00:49:50;;;;;;;23.63;21.23;;;;;;;19.20;96.99;101665.22;5050499;28;20029;-72
2022/08/24 00:52:24;;;;;;;26.02;20.98;;;;;;;19.20;96.99;101667.03;5045659;28;20064;-72
2022/08/24 00:54:59;;;;;;;25.60;21.65;;;;;;;19.13;97.49;101669.09;5046238;28;20025;-72
2022/08/24 00:57:28;;;;;;;23.80;20.77;;;;;;;19.12;97.72;101672.66;5043584;28;20032;-72
2022/08/24 00:59:59;;;;;;;23.83;21.35;;;;;;;19.06;98.25;101672.91;5039162;28;20024;-72
2022/08/24 01:02:37;;;;;;;27.63;24.38;;;;;;;18.99;98.08;101668.84;5040746;28;20106;-72
2022/08/24 01:05:06;;;;;;;29.38;24.90;;;;;;;18.94;98.80;101664.63;5049929;28;20025;-72
2022/08/24 01:07:34;;;;;;;27.25;23.83;;;;;;;18.94;98.77;101669.94;5051019;28;20048;-72
2022/08/24 01:10:05;;;;;;;28.63;24.83;;;;;;;18.95;99.01;101674.28;5034997;28;20107;-72
2022/08/24 01:12:33;;;;;;;26.38;23.65;;;;;;;18.91;98.81;101664.78;5048974;28;20120;-72
2022/08/24 01:15:01;;;;;;;27.60;24.55;;;;;;;18.89;99.19;101660.47;5048965;28;20425;-72
2022/08/24 01:20:12;;;;;;;27.65;24.85;;;;;;;18.88;99.31;101672.00;5055163;28;20068;-72
2022/08/24 01:22:52;;;;;;;30.58;27.25;;;;;;;18.87;99.61;101673.78;5052906;28;20021;-72
2022/08/24 01:25:20;;;;;;;30.90;25.45;;;;;;;18.85;99.87;101670.34;5045889;28;20047;-72
2022/08/24 01:27:47;;;;;;;30.42;27.13;;;;;;;18.84;99.71;101673.91;5043346;28;20385;-72
2022/08/24 01:30:15;;;;;;;32.83;27.02;;;;;;;18.79;100.00;101670.59;5049782;28;20526;-72
2022/08/24 01:32:50;;;;;;;30.02;26.77;;;;;;;18.76;100.00;101675.16;5055047;28;20376;-72
2022/08/24 01:35:15;;;;;;;31.05;27.60;;;;;;;18.75;100.00;101674.31;5054434;28;20112;-72
2022/08/24 01:37:41;;;;;;;30.48;26.40;;;;;;;18.75;100.00;101669.03;5044743;28;20435;-72
2022/08/24 01:40:07;;;;;;;32.83;26.98;;;;;;;18.71;100.00;101667.44;5049742;28;20029;-72
2022/08/24 01:42:33;;;;;;;34.45;28.38;;;;;;;18.59;100.00;101652.97;5048656;28;20029;-71
2022/08/24 01:44:59;;;;;;;30.80;26.63;;;;;;;18.62;100.00;101667.81;5054039;28;20079;-72
2022/08/24 01:47:24;;;;;;;30.48;27.25;;;;;;;18.55;100.00;101661.09;5041665;28;20069;-72
2022/08/24 01:49:50;;;;;;;32.67;27.48;;;;;;;18.48;100.00;101665.81;5047427;28;20533;-72
2022/08/24 01:52:22;;;;;;;30.80;27.17;;;;;;;18.44;100.00;101662.44;5053341;28;20473;-72
2022/08/24 01:54:48;;;;;;;32.75;28.50;;;;;;;18.38;100.00;101662.69;5054445;28;20480;-72
2022/08/24 01:57:13;;;;;;;31.80;26.52;;;;;;;18.33;100.00;101662.03;5044887;28;20025;-72
2022/08/24 01:59:39;;;;;;;28.58;25.48;;;;;;;18.36;100.00;101664.53;5041913;28;20362;-72
2022/08/24 02:02:15;;;;;;;28.70;25.60;;;;;;;18.33;100.00;101656.75;5054319;28;20423;-71
2022/08/24 02:04:41;;;;;;;27.63;24.67;;;;;;;18.28;100.00;101656.09;5044360;28;20021;-72
2022/08/24 02:07:08;;;;;;;28.95;25.08;;;;;;;18.23;100.00;101660.72;5054233;28;20039;-72
2022/08/24 02:09:33;;;;;;;27.05;24.10;;;;;;;18.17;100.00;101660.97;5054245;28;20025;-72
2022/08/24 02:11:59;;;;;;;30.45;25.17;;;;;;;18.13;100.00;101662.03;5048270;28;20036;-71
2022/08/24 02:14:24;;;;;;;28.63;23.77;;;;;;;18.16;100.00;101667.16;5040690;28;20029;-72
2022/08/24 02:16:50;;;;;;;28.60;25.00;;;;;;;18.13;100.00;101667.28;5052021;28;20013;-71
2022/08/24 02:19:15;;;;;;;28.00;23.95;;;;;;;18.06;100.00;101663.22;5053250;28;20465;-71
2022/08/24 02:21:40;;;;;;;28.80;24.42;;;;;;;18.01;100.00;101656.31;5054284;28;20053;-71
2022/08/24 02:24:06;;;;;;;27.95;24.25;;;;;;;18.06;100.00;101661.41;5053118;28;20385;-71
2022/08/24 02:26:31;;;;;;;28.20;24.17;;;;;;;18.06;100.00;101668.47;5046562;28;20036;-72
2022/08/24 02:28:57;;;;;;;28.13;23.58;;;;;;;18.00;100.00;101674.84;5048518;28;20037;-71
2022/08/24 02:31:22;;;;;;;26.90;23.75;;;;;;;17.99;100.00;101673.16;5044196;28;20021;-72
2022/08/24 02:33:47;;;;;;;28.30;23.90;;;;;;;17.99;100.00;101678.44;5051465;28;20115;-71
2022/08/24 02:36:13;;;;;;;28.98;24.80;;;;;;;17.99;100.00;101675.78;5046675;28;20048;-72
2022/08/24 02:38:39;;;;;;;27.92;24.23;;;;;;;17.99;100.00;101681.94;5053587;28;20036;-72
2022/08/24 02:41:04;;;;;;;26.55;23.65;;;;;;;17.93;100.00;101668.97;5049681;28;20029;-72
2022/08/24 02:43:31;;;;;;;27.35;24.50;;;;;;;17.91;100.00;101681.38;5053537;28;20100;-72
2022/08/24 02:45:56;;;;;;;28.83;25.25;;;;;;;17.90;100.00;101681.44;5049718;28;20049;-71
2022/08/24 02:48:21;;;;;;;29.83;26.63;;;;;;;17.93;100.00;101676.91;5052185;28;20564;-72
2022/08/24 02:50:50;;;;;;;28.30;25.27;;;;;;;17.93;100.00;101683.97;5053597;28;20032;-72
2022/08/24 02:53:18;;;;;;;27.33;24.42;;;;;;;17.93;100.00;101678.69;5053104;28;20489;-71
2022/08/24 02:55:44;;;;;;;29.92;25.42;;;;;;;17.89;100.00;101680.59;5051390;28;20033;-72
2022/08/24 02:58:12;;;;;;;28.08;24.60;;;;;;;17.85;100.00;101686.03;5045276;28;20029;-72
2022/08/24 03:00:39;;;;;;;28.85;25.25;;;;;;;17.81;100.00;101689.72;5040145;28;20025;-72
2022/08/24 03:03:06;;;;;;;30.17;23.83;;;;;;;17.75;100.00;101682.88;5051911;28;20028;-71
2022/08/24 03:05:32;;;;;;;27.90;24.90;;;;;;;17.73;100.00;101682.94;5043147;28;20068;-72
2022/08/24 03:07:57;;;;;;;28.80;24.63;;;;;;;17.75;100.00;101682.88;5025636;28;20073;-72
2022/08/24 03:10:23;;;;;;;29.60;25.98;;;;;;;17.74;100.00;101678.53;5051360;28;20393;-72
2022/08/24 03:12:49;;;;;;;29.88;25.45;;;;;;;17.69;100.00;101676.09;5042458;28;20045;-71
2022/08/24 03:15:15;;;;;;;29.10;25.10;;;;;;;17.65;100.00;101670.97;5031330;28;20036;-71
2022/08/24 03:17:41;;;;;;;27.80;24.40;;;;;;;17.66;100.00;101680.63;5041788;28;20065;-72
2022/08/24 03:20:09;;;;;;;27.13;24.17;;;;;;;17.67;100.00;101677.06;5052597;28;20056;-72
2022/08/24 03:22:35;;;;;;;28.58;24.60;;;;;;;17.64;100.00;101677.19;5052217;28;20032;-72
2022/08/24 03:25:01;;;;;;;27.67;24.63;;;;;;;17.64;100.00;101677.19;5045556;28;20025;-72
2022/08/24 03:27:26;;;;;;;29.08;24.58;;;;;;;17.59;100.00;101679.97;5049579;28;20025;-72
2022/08/24 03:29:51;;;;;;;29.77;24.92;;;;;;;17.60;100.00;101680.88;5037359;28;20052;-72
2022/08/24 03:32:17;;;;;;;28.13;24.48;;;;;;;17.55;100.00;101679.25;5048861;28;20488;-72
2022/08/24 03:34:42;;;;;;;28.77;25.15;;;;;;;17.51;100.00;101674.16;5053034;28;20483;-72
2022/08/24 03:37:08;;;;;;;27.13;24.13;;;;;;;17.53;100.00;101670.56;5048056;28;20045;-72
2022/08/24 03:39:34;;;;;;;30.52;25.02;;;;;;;17.43;100.00;101658.66;5052587;28;20024;-72
2022/08/24 03:41:59;;;;;;;27.98;23.27;;;;;;;17.50;100.00;101670.69;5047179;28;20076;-72
2022/08/24 03:44:25;;;;;;;28.75;24.27;;;;;;;17.41;100.00;101657.00;5043757;28;20420;-72
2022/08/24 03:46:52;;;;;;;28.60;24.30;;;;;;;17.37;100.00;101666.81;5052604;28;20017;-72
2022/08/24 03:49:18;;;;;;;30.08;24.25;;;;;;;17.36;100.00;101672.13;5048291;28;20123;-71
2022/08/24 03:51:44;;;;;;;29.67;25.67;;;;;;;17.28;100.00;101659.25;5052052;28;20021;-72
2022/08/24 03:54:11;;;;;;;26.73;23.58;;;;;;;17.35;100.00;101673.03;5052269;28;20032;-72
2022/08/24 03:56:37;;;;;;;28.42;25.05;;;;;;;17.35;100.00;101675.69;5052127;28;20036;-72
2022/08/24 03:59:03;;;;;;;28.35;24.25;;;;;;;17.36;100.00;101670.34;5040568;28;20487;-72
2022/08/24 04:01:28;;;;;;;32.20;25.50;;;;;;;17.33;100.00;101673.13;5050583;28;20028;-72
2022/08/24 04:03:54;;;;;;;30.10;24.83;;;;;;;17.36;100.00;101675.59;5052530;28;20083;-72
2022/08/24 04:06:20;;;;;;;29.30;24.63;;;;;;;17.40;100.00;101673.75;5050778;28;20057;-71
2022/08/24 04:08:46;;;;;;;29.42;24.67;;;;;;;17.36;100.00;101674.75;5039073;28;20022;-72
2022/08/24 04:11:16;;;;;;;32.60;25.80;;;;;;;17.33;100.00;101688.94;5044792;28;20540;-72
2022/08/24 04:13:42;;;;;;;30.80;25.05;;;;;;;17.35;100.00;101684.44;5050883;28;20009;-71
2022/08/24 04:16:10;;;;;;;31.77;26.13;;;;;;;17.30;100.00;101684.63;5043652;28;20401;-72
2022/08/24 04:18:35;;;;;;;29.52;25.27;;;;;;;17.29;100.00;101687.31;5046196;28;20024;-72
2022/08/24 04:21:01;;;;;;;29.80;24.92;;;;;;;17.26;100.00;101687.41;5048933;28;20033;-72
2022/08/24 04:23:26;;;;;;;31.58;25.42;;;;;;;17.22;100.00;101683.19;5036787;28;20025;-72
2022/08/24 04:25:52;;;;;;;31.65;24.58;;;;;;;17.18;100.00;101690.34;5051295;28;20457;-72
2022/08/24 04:28:18;;;;;;;34.00;24.88;;;;;;;17.20;100.00;101685.91;5034245;28;20158;-72
2022/08/24 04:30:49;;;;;;;30.58;23.40;;;;;;;17.20;100.00;101685.00;5027020;28;20028;-72
2022/08/24 04:33:15;;;;;;;31.27;24.23;;;;;;;17.18;100.00;101686.88;5048022;28;20469;-72
2022/08/24 04:35:44;;;;;;;29.50;25.02;;;;;;;17.17;100.00;101695.69;5037857;28;20029;-71
2022/08/24 04:38:09;;;;;;;31.08;25.05;;;;;;;17.16;100.00;101688.69;5051486;28;20048;-72
2022/08/24 04:40:38;;;;;;;31.08;24.95;;;;;;;17.14;100.00;101696.66;5041560;28;20457;-71
2022/08/24 04:43:04;;;;;;;30.58;24.00;;;;;;;17.15;100.00;101694.88;5049373;28;20527;-72
2022/08/24 04:45:29;;;;;;;29.02;24.00;;;;;;;17.11;100.00;101693.28;5046186;28;20061;-72
2022/08/24 04:47:54;;;;;;;28.98;23.40;;;;;;;17.13;100.00;101689.66;5050710;28;20162;-72
2022/08/24 04:50:20;;;;;;;29.80;24.30;;;;;;;17.11;100.00;101688.00;5045998;28;20037;-72
2022/08/24 04:52:45;;;;;;;32.28;25.10;;;;;;;17.14;100.00;101695.81;5052212;28;20017;-72
2022/08/24 04:55:12;;;;;;;32.92;24.27;;;;;;;17.15;100.00;101694.88;5057186;28;20051;-72
2022/08/24 04:57:37;;;;;;;28.52;23.48;;;;;;;17.15;100.00;101700.16;5053872;28;20021;-72
2022/08/24 05:00:04;;;;;;;28.00;23.77;;;;;;;17.16;100.00;101702.72;5046221;28;20116;-72
2022/08/24 05:02:29;;;;;;;30.33;24.90;;;;;;;17.19;100.00;101701.75;5044393;28;20033;-72
2022/08/24 05:04:56;;;;;;;29.98;24.85;;;;;;;17.22;100.00;101706.91;5055915;28;20028;-72
2022/08/24 05:07:22;;;;;;;29.70;24.35;;;;;;;17.25;100.00;101712.91;5057482;28;20025;-72
2022/08/24 05:09:47;;;;;;;32.58;25.30;;;;;;;17.27;100.00;101705.81;5054024;28;20108;-72
2022/08/24 05:12:13;;;;;;;28.90;24.70;;;;;;;17.28;100.00;101704.03;5040321;28;20044;-72
2022/08/24 05:14:38;;;;;;;29.77;25.25;;;;;;;17.34;100.00;101710.88;5037758;28;20032;-72
2022/08/24 05:17:03;;;;;;;34.88;25.73;;;;;;;17.36;100.00;101709.88;5030016;28;20066;-72
2022/08/24 05:19:28;;;;;;;31.67;27.33;;;;;;;17.40;100.00;101702.72;5057918;28;20404;-72
2022/08/24 05:21:54;;;;;;;29.55;26.02;;;;;;;17.42;100.00;101708.78;5044205;28;20469;-72
2022/08/24 05:24:19;;;;;;;32.83;25.67;;;;;;;17.44;100.00;101699.06;5057325;28;20098;-72
2022/08/24 05:26:45;;;;;;;31.48;25.10;;;;;;;17.52;100.00;101713.63;5057858;28;20032;-72
2022/08/24 05:29:11;;;;;;;31.30;25.63;;;;;;;17.58;100.00;101711.69;5052695;28;20163;-72
2022/08/24 05:31:36;;;;;;;30.30;25.85;;;;;;;17.58;100.00;101703.78;5043786;28;20084;-72
2022/08/24 05:34:03;;;;;;;30.42;25.10;;;;;;;17.69;100.00;101720.03;5046095;28;20102;-72
2022/08/24 05:36:31;;;;;;;31.98;26.67;;;;;;;17.68;100.00;101708.63;5056947;28;20035;-72
2022/08/24 05:38:59;;;;;;;32.60;27.67;;;;;;;17.76;100.00;101719.78;5057675;28;20033;-72
2022/08/24 05:41:25;;;;;;;36.67;29.13;;;;;;;17.85;100.00;101721.16;5046398;28;20079;-72
2022/08/24 05:43:52;;;;;;;34.60;28.60;;;;;;;17.88;100.00;101712.28;5047019;28;20025;-72
2022/08/24 05:46:17;;;;;;;34.63;27.23;;;;;;;17.96;100.00;101716.34;5054539;28;20042;-72
2022/08/24 05:48:43;;;;;;;33.08;28.65;;;;;;;18.05;100.00;101722.16;5052068;28;20388;-71
2022/08/24 05:51:09;;;;;;;34.95;28.25;;;;;;;18.10;100.00;101717.56;5054962;28;20048;-72
2022/08/24 05:53:35;;;;;;;32.03;27.67;;;;;;;18.15;100.00;101711.19;5051926;28;20041;-72
2022/08/24 05:56:06;;;;;;;32.22;26.88;;;;;;;18.31;100.00;101711.41;5041103;28;20124;-72
2022/08/24 05:58:33;;;;;;;34.08;28.85;;;;;;;18.41;100.00;101717.13;5042229;28;20029;-72
2022/08/24 06:01:03;;;;;;;35.00;28.75;;;;;;;18.48;100.00;101716.81;5047246;28;20028;-72
2022/08/24 06:03:29;;;;;;;38.20;32.63;;;;;;;18.59;100.00;101712.84;5057378;28;20076;-72
2022/08/24 06:05:54;;;;;;;34.38;29.98;;;;;;;18.68;100.00;101710.69;5052944;28;20482;-72
2022/08/24 06:08:20;;;;;;;41.33;33.00;;;;;;;18.77;100.00;101713.84;5053653;28;20029;-72
2022/08/24 06:10:46;;;;;;;45.38;36.42;;;;;;;18.80;100.00;101714.59;5041540;28;20428;-72
2022/08/24 06:13:13;;;;;;;47.33;37.63;;;;;;;18.99;100.00;101724.34;5042479;28;20025;-72
2022/08/24 06:15:39;;;;;;;50.72;41.47;;;;;;;19.10;100.00;101724.72;5042432;28;20496;-72
2022/08/24 06:18:05;;;;;;;47.47;40.95;;;;;;;19.20;100.00;101733.97;5047136;28;20017;-72
2022/08/24 06:20:32;;;;;;;47.63;40.45;;;;;;;19.27;100.00;101727.47;5047155;28;20445;-72
2022/08/24 06:22:58;;;;;;;48.78;40.25;;;;;;;19.36;100.00;101729.69;5037351;28;20055;-72
2022/08/24 06:28:07;;;;;;;47.92;38.90;;;;;;;19.52;100.00;101718.38;5043316;28;20052;-75
2022/08/24 06:30:33;;;;;;;52.25;40.33;;;;;;;19.64;100.00;101729.25;5048208;28;20029;-75
2022/08/24 06:33:00;;;;;;;44.33;36.83;;;;;;;19.73;100.00;101735.91;5044339;28;20382;-75
2022/08/24 06:35:26;;;;;;;47.80;39.17;;;;;;;19.84;100.00;101745.97;5053670;28;20028;-75
2022/08/24 06:37:51;;;;;;;45.15;36.60;;;;;;;19.95;100.00;101740.19;5053726;28;20372;-75
2022/08/24 06:40:19;;;;;;;50.63;38.25;;;;;;;20.02;100.00;101734.50;5037490;28;20039;-76
2022/08/24 06:42:44;;;;;;;47.38;35.38;;;;;;;20.08;98.36;101741.31;5050040;28;20036;-75
2022/08/24 06:45:10;;;;;;;46.97;36.55;;;;;;;20.17;100.00;101745.28;5049145;28;20037;-75
2022/08/24 06:47:35;;;;;;;44.08;33.95;;;;;;;20.24;99.43;101746.69;5029749;28;20033;-76
2022/08/24 06:50:00;;;;;;;42.20;32.25;;;;;;;20.32;98.49;101755.13;5042532;28;20035;-75
2022/08/24 06:52:26;;;;;;;41.15;29.73;;;;;;;20.33;98.16;101743.56;5050225;28;20526;-75
2022/08/24 06:54:52;;;;;;;36.80;28.85;;;;;;;20.43;96.69;101750.13;5053021;28;20025;-75
2022/08/24 06:57:17;;;;;;;33.75;27.73;;;;;;;20.48;96.27;101744.59;5052763;28;20051;-75
2022/08/24 06:59:43;;;;;;;37.58;31.13;;;;;;;20.55;96.87;101740.75;5040754;28;20021;-75
2022/08/24 07:02:09;;;;;;;35.55;30.17;;;;;;;20.64;95.61;101748.22;5052594;28;20400;-75
2022/08/24 07:04:34;;;;;;;35.58;30.30;;;;;;;20.72;95.54;101742.50;5052997;28;20028;-76
2022/08/24 07:07:00;;;;;;;33.92;27.63;;;;;;;20.80;94.28;101756.25;5052981;28;20352;-76
2022/08/24 07:09:25;;;;;;;33.47;27.63;;;;;;;20.85;94.08;101754.19;5048958;28;20400;-75
2022/08/24 07:11:51;;;;;;;33.70;27.83;;;;;;;20.94;93.08;101756.38;5050137;28;20021;-75
2022/08/24 07:14:18;;;;;;;35.13;28.85;;;;;;;21.05;91.71;101764.59;5034421;28;20441;-75
2022/08/24 07:16:43;;;;;;;32.28;27.60;;;;;;;21.15;91.78;101757.00;5038627;28;20096;-75
2022/08/24 07:19:08;;;;;;;34.92;26.15;;;;;;;21.29;91.00;101758.94;5048635;28;20170;-75
2022/08/24 07:21:34;;;;;;;30.10;24.58;;;;;;;21.40;89.83;101764.53;5050573;28;20389;-75
2022/08/24 07:24:01;;;;;;;29.90;24.83;;;;;;;21.50;88.86;101762.25;5053101;28;20025;-75
2022/08/24 07:26:29;;;;;;;32.30;24.55;;;;;;;21.62;86.30;101769.53;5050512;28;20021;-74
2022/08/24 07:29:04;;;;;;;39.50;24.92;;;;;;;21.73;87.13;101760.97;5036082;28;20040;-75
2022/08/24 07:31:30;;;;;;;29.60;24.80;;;;;;;21.93;85.73;101767.81;5051290;28;20037;-75
2022/08/24 07:33:55;;;;;;;31.17;24.48;;;;;;;22.05;86.41;101761.81;5052568;28;20013;-75
2022/08/24 07:36:20;;;;;;;28.92;23.63;;;;;;;22.14;82.46;101761.28;5051709;28;20368;-75
2022/08/24 07:38:46;;;;;;;28.38;24.65;;;;;;;22.22;82.93;101762.69;5048687;28;20108;-75
2022/08/24 07:41:13;;;;;;;26.83;23.90;;;;;;;22.28;80.96;101757.03;5045477;28;20025;-75
2022/08/24 07:43:39;;;;;;;26.75;21.65;;;;;;;22.37;81.45;101762.66;5046340;28;20044;-75
2022/08/24 07:46:06;;;;;;;25.83;21.27;;;;;;;22.43;80.32;101749.00;5052151;28;20035;-75
2022/08/24 07:48:32;;;;;;;20.80;18.60;;;;;;;22.50;82.02;101765.44;5048206;28;20036;-75
2022/08/24 07:51:05;;;;;;;24.17;20.05;;;;;;;22.64;80.55;101762.81;5041637;28;20017;-75
2022/08/24 07:53:31;;;;;;;;;;;;;;;22.71;82.82;101765.09;5032784;28;20458;-75
2022/08/24 07:55:56;;;;;;;25.53;18.90;;;;;;;22.79;78.65;101761.06;5030505;28;19923;-75
2022/08/24 07:58:22;;;;;;;27.63;19.58;;;;;;;22.88;76.34;101757.81;5030649;28;20040;-75
2022/08/24 08:00:48;;;;;;;22.30;18.65;;;;;;;22.89;77.89;101764.00;5042130;28;20025;-75
2022/08/24 08:03:13;;;;;;;21.88;17.48;;;;;;;23.01;77.96;101760.59;5042091;28;20036;-75
2022/08/24 08:05:39;;;;;;;16.23;14.23;;;;;;;23.16;76.16;101765.97;5051470;28;20086;-75
2022/08/24 08:08:05;;;;;;;23.25;17.02;;;;;;;23.27;75.40;101766.13;5040426;28;20029;-75
2022/08/24 08:10:34;;;;;;;19.75;14.93;;;;;;;23.31;74.60;101759.66;5039148;28;20053;-75
2022/08/24 08:13:00;;;;;;;15.75;13.57;;;;;;;23.37;73.08;101762.78;5042853;28;20029;-75
2022/08/24 08:15:25;;;;;;;16.45;11.82;;;;;;;23.43;73.45;101761.56;5043107;28;20078;-75
2022/08/24 08:17:50;;;;;;;15.95;9.07;;;;;;;23.52;71.24;101763.63;5041619;28;20029;-75
2022/08/24 08:20:16;;;;;;;16.00;9.95;;;;;;;23.71;70.09;101767.84;5037057;28;20085;-75
2022/08/24 08:25:25;;;;;;;16.15;11.05;;;;;;;24.05;66.02;101771.81;5035489;28;20043;-75
2022/08/24 08:27:50;;;;;;;12.77;8.63;;;;;;;24.26;66.42;101769.53;5041350;28;20112;-75
2022/08/24 08:30:16;;;;;;;12.45;8.55;;;;;;;24.49;64.83;101763.56;5045135;28;20115;-75
2022/08/24 08:32:41;;;;;;;11.38;7.45;;;;;;;24.74;65.71;101761.88;5029655;28;20033;-76
2022/08/24 08:35:07;;;;;;;13.73;8.52;;;;;;;24.93;64.07;101761.47;5046130;28;20024;-76
2022/08/24 08:37:33;;;;;;;11.55;7.22;;;;;;;25.14;63.79;101767.13;5037693;28;20029;-76
2022/08/24 08:39:58;;;;;;;9.93;7.55;;;;;;;25.37;61.83;101769.03;5038558;28;20021;-76
2022/08/24 08:42:30;;;;;;;9.27;6.82;;;;;;;25.61;62.20;101758.41;5038838;28;20033;-75
2022/08/24 08:45:06;;;;;;;9.30;6.30;;;;;;;25.67;61.51;101759.78;5033551;28;20037;-76
2022/08/24 08:48:02;;;;;;;7.45;5.20;;;;;;;25.77;62.67;101773.28;5039348;28;20481;-76
2022/08/24 08:50:32;;;;;;;7.72;6.13;;;;;;;25.88;60.60;101762.72;5034342;28;20476;-76
2022/08/24 08:53:21;;;;;;;4.13;3.75;;;;;;;26.06;57.87;101769.41;5029046;28;20078;-76
2022/08/24 08:56:00;;;;;;;4.63;3.60;;;;;;;26.30;58.18;101768.53;5033180;28;20438;-76
2022/08/24 08:58:45;;;;;;;8.25;5.55;;;;;;;26.38;55.69;101766.09;5029423;28;20021;-76
2022/08/24 09:01:38;;;;;;;7.30;4.47;;;;;;;26.29;56.95;101772.13;5028466;28;20504;-76
2022/08/24 09:04:15;;;;;;;5.93;4.15;;;;;;;26.10;57.41;101773.53;5024748;28;20028;-76
2022/08/24 09:07:03;;;;;;;6.82;3.67;;;;;;;26.07;58.64;101771.09;5035189;28;20033;-76
2022/08/24 09:09:44;;;;;;;6.18;4.03;;;;;;;26.09;57.96;101766.47;5028203;28;20485;-76
2022/08/24 09:12:37;;;;;;;7.90;5.18;;;;;;;26.07;58.83;101772.91;5024799;28;20111;-76
2022/08/24 09:15:34;;;;;;;6.95;3.92;;;;;;;25.92;60.29;101775.75;5026382;28;20111;-76
2022/08/24 09:18:37;;;;;;;4.78;3.80;;;;;;;25.81;59.98;101783.69;5029144;28;20029;-76
2022/08/24 09:21:21;;;;;;;6.00;3.92;;;;;;;25.91;60.33;101786.56;5028753;28;20045;-76
2022/08/24 09:24:25;;;;;;;6.18;3.95;;;;;;;26.01;60.51;101774.22;5033226;28;20029;-76
2022/08/24 09:27:11;;;;;;;7.43;3.47;;;;;;;25.89;57.96;101777.78;5030580;28;20537;-76
2022/08/24 09:30:05;;;;;;;4.78;3.63;;;;;;;25.79;58.09;101772.22;5026096;28;20392;-77
2022/08/24 09:32:35;;;;;;;;;;;;;;;25.87;60.59;101779.72;5031243;28;20036;-76
2022/08/24 09:35:08;;;;;;;5.68;3.95;;;;;;;25.96;59.05;101780.84;5035927;28;20008;-77
2022/08/24 09:38:25;;;;;;;4.88;3.78;;;;;;;26.10;58.33;101770.03;5029191;28;20029;-77
2022/08/24 09:40:50;;;;;;;4.57;3.50;;;;;;;26.20;58.22;101772.84;5009837;28;20132;-76
2022/08/24 09:43:43;;;;;;;5.78;3.33;;;;;;;26.33;58.08;101778.97;5031355;28;20045;-77
2022/08/24 09:46:37;;;;;;;6.00;3.90;;;;;;;26.22;57.53;101771.75;5022422;28;20053;-74
2022/08/24 09:49:30;;;;;;;5.18;3.30;;;;;;;26.29;57.04;101778.38;5039067;28;20069;-74
2022/08/24 09:52:17;;;;;;;8.13;3.60;;;;;;;26.48;57.14;101777.00;5038455;28;20103;-74
2022/08/24 09:55:19;;;;;;;9.27;3.40;;;;;;;26.53;55.37;101775.69;5026899;28;20030;-73
2022/08/24 09:58:29;;;;;;;3.67;3.00;;;;;;;26.68;56.54;101773.63;5042808;28;20040;-74
2022/08/24 10:01:04;;;;;;;5.05;3.22;;;;;;;27.01;56.36;101767.50;4952259;28;20043;-73
2022/08/24 10:04:05;;;;;;;5.20;3.42;;;;;;;27.17;54.51;101769.00;5035380;28;20053;-73
2022/08/24 10:06:56;;;;;;;4.78;2.97;;;;;;;27.27;54.24;101770.84;5030626;28;20021;-74
2022/08/24 10:09:30;;;;;;;3.60;2.90;;;;;;;27.21;51.88;101776.66;5033161;28;20025;-73
2022/08/24 10:12:01;;;;;;;4.43;3.40;;;;;;;27.05;53.82;101765.44;5027243;28;20033;-73
2022/08/24 10:14:52;;;;;;;4.68;3.33;;;;;;;27.19;54.84;101767.91;5032332;28;20044;-74
2022/08/24 10:17:32;;;;;;;4.20;2.80;;;;;;;27.36;53.13;101765.69;5030231;28;20040;-74
2022/08/24 10:20:11;;;;;;;5.13;2.65;;;;;;;27.37;52.95;101754.88;5045081;28;20487;-74
2022/08/24 10:23:04;;;;;;;6.22;2.92;;;;;;;27.27;53.42;101760.13;5045075;28;20030;-74
2022/08/24 10:25:59;;;;;;;3.10;2.67;;;;;;;27.15;53.56;101754.91;5051800;28;20464;-74
2022/08/24 10:29:10;;;;;;;3.17;2.65;;;;;;;27.10;53.71;101752.53;5034466;28;20045;-74
2022/08/24 10:32:18;;;;;;;3.67;2.90;;;;;;;27.13;52.68;101751.44;5046825;28;20063;-74
2022/08/24 10:35:19;;;;;;;6.22;2.50;;;;;;;27.22;53.31;101753.44;5026239;28;20462;-74
2022/08/24 10:41:24;;;;;;;4.30;2.67;;;;;;;27.74;52.01;101750.06;5028685;28;20519;-74
2022/08/24 10:43:55;;;;;;;5.38;2.30;;;;;;;28.31;51.86;101748.03;5031558;28;20029;-75
2022/08/24 10:46:59;;;;;;;2.92;2.72;;;;;;;28.73;50.48;101749.91;5040334;28;20029;-74
2022/08/24 10:50:02;;;;;;;3.70;2.80;;;;;;;29.24;49.65;101735.66;5027879;28;20029;-74
2022/08/24 10:52:56;;;;;;;4.45;2.88;;;;;;;29.74;48.17;101735.66;5030711;28;20039;-74
2022/08/24 10:55:26;;;;;;;5.55;3.05;;;;;;;29.96;46.06;101740.75;5042937;28;20033;-74
2022/08/24 10:57:57;;;;;;;5.00;2.67;;;;;;;30.07;43.91;101731.69;5053338;28;20441;-77
2022/08/24 11:00:27;;;;;;;3.45;2.78;;;;;;;30.01;44.34;101732.25;5035244;28;20030;-79
2022/08/24 11:03:06;;;;;;;6.57;2.85;;;;;;;30.07;45.69;101732.53;5034216;28;20021;-74
2022/08/24 11:05:39;;;;;;;3.63;3.05;;;;;;;29.78;43.38;101731.69;5046327;28;20446;-74
2022/08/24 11:08:06;;;;;;;7.43;2.67;;;;;;;29.58;44.62;101730.78;5052069;28;20110;-74
2022/08/24 11:10:37;;;;;;;8.05;2.83;;;;;;;29.44;46.64;101733.88;5040420;28;20031;-74
2022/08/24 11:13:22;;;;;;;4.18;2.97;;;;;;;29.45;46.31;101724.81;5048034;28;20041;-79
2022/08/24 11:15:52;;;;;;;3.92;2.80;;;;;;;29.26;45.93;101730.97;5045149;28;20025;-74
2022/08/24 11:18:18;;;;;;;3.83;3.03;;;;;;;29.31;48.04;101723.38;5037018;28;20032;-74
2022/08/24 11:20:45;;;;;;;3.33;2.80;;;;;;;29.46;44.28;101727.34;5032668;28;20021;-74
2022/08/24 11:23:24;;;;;;;5.25;2.90;;;;;;;29.55;45.96;101726.53;5046364;28;20021;-74
2022/08/24 11:26:12;;;;;;;2.90;2.42;;;;;;;29.58;46.52;101720.03;5053165;28;20037;-74
2022/08/24 11:28:45;;;;;;;6.78;2.42;;;;;;;29.60;46.67;101710.03;5043017;28;20068;-77
2022/08/24 11:31:13;;;;;;;4.07;3.10;;;;;;;29.60;44.12;101724.31;5040892;28;20477;-74
2022/08/24 11:33:49;;;;;;;3.75;3.13;;;;;;;29.47;44.03;101712.09;5046970;28;20045;-74
2022/08/24 11:36:18;;;;;;;4.88;3.05;;;;;;;29.47;43.52;101712.94;5023446;28;20052;-73